Time;durP1;ratioP1;P1;durP2;ratioP2;P2;SDS_P1;SDS_P2;PMS_P1;PMS_P2;Temp;Humidity;BMP_temperature;BMP_pressure;BME280_temperature;BME280_humidity;BME280_pressure;Samples;Min_cycle;Max_cycle;Signal;HPM_P1;HPM_P2
2021/10/28 00:13:44;;;;;;;32.72;29.98;;;6.90;94.80;;;;;;5126828;27;20284;-69
2021/10/28 00:16:16;;;;;;;31.40;28.90;;;6.90;94.70;;;;;;5125301;27;20218;-69
2021/10/28 00:18:45;;;;;;;31.13;28.63;;;6.80;94.90;;;;;;5128914;27;20194;-68
2021/10/28 00:21:12;;;;;;;30.80;28.40;;;6.80;95.00;;;;;;5129517;27;20202;-69
2021/10/28 00:23:47;;;;;;;30.20;27.60;;;6.70;95.10;;;;;;5125524;27;20190;-69
2021/10/28 00:26:14;;;;;;;30.23;27.85;;;6.70;95.00;;;;;;5125679;27;20196;-71
2021/10/28 00:28:41;;;;;;;30.10;27.80;;;6.70;94.80;;;;;;5130624;27;20198;-72
2021/10/28 00:31:09;;;;;;;32.08;29.30;;;6.70;95.00;;;;;;5126412;27;20194;-72
2021/10/28 00:33:36;;;;;;;30.30;28.05;;;6.70;95.30;;;;;;5129084;27;20229;-75
2021/10/28 00:36:05;;;;;;;30.50;28.10;;;6.60;95.30;;;;;;5128436;27;20220;-71
2021/10/28 00:38:33;;;;;;;48.67;29.30;;;6.60;95.10;;;;;;5131640;27;20591;-71
2021/10/28 00:41:03;;;;;;;32.30;29.65;;;6.70;95.20;;;;;;5120765;27;20197;-71
2021/10/28 00:43:30;;;;;;;33.78;30.67;;;6.60;95.20;;;;;;5123857;27;20222;-72
2021/10/28 00:45:57;;;;;;;32.90;29.95;;;6.60;95.20;;;;;;5124496;27;20659;-71
2021/10/28 00:48:24;;;;;;;31.50;29.05;;;6.70;95.00;;;;;;5126590;27;20197;-71
2021/10/28 00:50:53;;;;;;;32.22;29.67;;;6.60;94.80;;;;;;5125710;27;20666;-73
2021/10/28 00:53:22;;;;;;;33.50;30.73;;;6.60;95.00;;;;;;5127857;27;20300;-71
2021/10/28 00:55:51;;;;;;;32.63;29.73;;;6.50;95.10;;;;;;5123544;27;20214;-72
2021/10/28 00:58:22;;;;;;;31.52;28.83;;;6.60;95.00;;;;;;5134471;27;20270;-71
2021/10/28 01:00:50;;;;;;;33.72;30.73;;;6.60;94.80;;;;;;5125597;27;20313;-72
2021/10/28 01:03:17;;;;;;;34.20;31.45;;;6.50;94.80;;;;;;5130511;27;20221;-71
2021/10/28 01:05:44;;;;;;;34.05;30.85;;;6.50;95.00;;;;;;5132757;27;20207;-73
2021/10/28 01:08:16;;;;;;;37.25;33.78;;;6.50;95.00;;;;;;5132700;27;20267;-71
2021/10/28 01:10:44;;;;;;;37.22;33.70;;;6.40;95.20;;;;;;5125544;27;20202;-75
2021/10/28 01:13:11;;;;;;;36.88;33.60;;;6.40;95.40;;;;;;5127579;27;20312;-70
2021/10/28 01:15:39;;;;;;;35.63;32.65;;;6.40;95.60;;;;;;5126541;28;20686;-71
2021/10/28 01:18:09;;;;;;;38.15;34.75;;;6.40;95.60;;;;;;5130412;27;20670;-69
2021/10/28 01:20:38;;;;;;;38.63;35.25;;;6.40;95.60;;;;;;5127613;27;20841;-71
2021/10/28 01:23:05;;;;;;;38.25;34.85;;;6.40;95.70;;;;;;5133824;27;20222;-71
2021/10/28 01:25:32;;;;;;;36.58;33.35;;;6.40;96.10;;;;;;5124239;28;20780;-71
2021/10/28 01:27:59;;;;;;;35.53;32.42;;;6.40;96.40;;;;;;5133124;27;20203;-70
2021/10/28 01:30:26;;;;;;;37.80;34.22;;;6.40;96.10;;;;;;5128049;28;20202;-71
2021/10/28 01:32:53;;;;;;;38.65;35.25;;;6.40;96.10;;;;;;5127412;27;20214;-70
2021/10/28 01:35:21;;;;;;;37.72;34.35;;;6.40;96.10;;;;;;5127940;28;20214;-71
2021/10/28 01:37:50;;;;;;;39.15;35.55;;;6.40;96.10;;;;;;5125902;27;20194;-72
2021/10/28 01:40:18;;;;;;;40.67;37.08;;;6.40;96.30;;;;;;5116728;28;20205;-70
2021/10/28 01:42:49;;;;;;;40.03;36.25;;;6.40;96.20;;;;;;5124671;27;20224;-70
2021/10/28 01:45:16;;;;;;;128.45;42.28;;;6.40;96.30;;;;;;5125621;28;20597;-71
2021/10/28 01:47:43;;;;;;;42.53;38.47;;;6.40;96.40;;;;;;5131401;27;20284;-71
2021/10/28 01:50:11;;;;;;;41.53;37.15;;;6.50;97.20;;;;;;5125777;28;20584;-71
2021/10/28 01:52:39;;;;;;;44.22;39.47;;;6.50;96.70;;;;;;5132834;27;20246;-71
2021/10/28 01:55:10;;;;;;;45.47;40.67;;;6.60;96.40;;;;;;5125818;28;20254;-73
2021/10/28 01:57:38;;;;;;;43.80;39.00;;;6.60;96.30;;;;;;5124295;27;20193;-71
2021/10/28 02:00:06;;;;;;;43.65;39.20;;;6.50;96.70;;;;;;5127145;28;20579;-73
2021/10/28 02:02:33;;;;;;;43.65;39.17;;;6.50;97.10;;;;;;5123265;27;20702;-73
2021/10/28 02:05:00;;;;;;;45.33;40.95;;;6.50;97.00;;;;;;5123812;28;20281;-72
2021/10/28 02:07:27;;;;;;;93.57;44.85;;;6.50;97.10;;;;;;5123159;28;20280;-71
2021/10/28 02:09:53;;;;;;;45.35;38.50;;;6.50;97.60;;;;;;5123563;28;20194;-69
2021/10/28 02:12:22;;;;;;;58.70;39.92;;;6.50;98.20;;;;;;5124398;28;20218;-69
2021/10/28 02:14:49;;;;;;;170.75;48.10;;;6.60;99.90;;;;;;5126374;28;20190;-68
2021/10/28 02:17:15;;;;;;;44.33;39.78;;;6.60;99.90;;;;;;5127169;27;20224;-69
2021/10/28 02:19:42;;;;;;;45.05;40.53;;;6.60;99.90;;;;;;5123171;27;20187;-68
2021/10/28 02:22:09;;;;;;;44.30;39.72;;;6.70;99.10;;;;;;5131157;27;20214;-69
2021/10/28 02:24:36;;;;;;;44.17;39.75;;;6.70;98.70;;;;;;5128812;27;20198;-69
2021/10/28 02:27:03;;;;;;;43.63;39.30;;;6.70;98.70;;;;;;5129479;27;20201;-69
2021/10/28 02:29:32;;;;;;;131.40;47.08;;;6.70;98.50;;;;;;5130941;27;20888;-71
2021/10/28 02:31:58;;;;;;;41.15;37.17;;;6.70;99.60;;;;;;5132655;27;20218;-72
2021/10/28 02:34:25;;;;;;;702.28;104.53;;;6.70;99.20;;;;;;5128151;27;20186;-71
2021/10/28 02:36:52;;;;;;;1904.15;282.35;;;6.70;99.10;;;;;;5128968;27;20804;-71
2021/10/28 02:39:19;;;;;;;40.53;36.72;;;6.70;99.30;;;;;;5125989;27;20231;-71
2021/10/28 02:41:46;;;;;;;41.83;37.80;;;6.70;99.20;;;;;;5132539;27;20940;-72
2021/10/28 02:44:13;;;;;;;41.15;37.45;;;6.80;98.60;;;;;;5126865;27;20277;-72
2021/10/28 02:46:42;;;;;;;39.25;35.85;;;6.70;97.90;;;;;;5134390;27;20568;-71
2021/10/28 02:49:11;;;;;;;39.58;36.10;;;6.70;97.80;;;;;;5128563;27;20200;-72
2021/10/28 02:51:39;;;;;;;40.35;36.65;;;6.60;97.50;;;;;;5135576;27;20241;-72
2021/10/28 02:54:06;;;;;;;248.70;58.13;;;6.60;97.30;;;;;;5130287;27;20201;-68
2021/10/28 02:56:33;;;;;;;1076.68;148.80;;;6.60;99.20;;;;;;5130186;27;20206;-69
2021/10/28 02:59:00;;;;;;;509.63;82.63;;;6.60;99.10;;;;;;5130870;27;20193;-69
2021/10/28 03:01:27;;;;;;;39.38;35.92;;;6.60;99.90;;;;;;5134491;27;20231;-69
2021/10/28 03:03:55;;;;;;;38.67;35.28;;;6.60;99.90;;;;;;5133509;27;20217;-69
2021/10/28 03:06:22;;;;;;;38.45;34.95;;;6.50;99.00;;;;;;5133025;27;20196;-69
2021/10/28 03:08:50;;;;;;;37.90;34.60;;;6.50;98.60;;;;;;5139395;27;20285;-69
2021/10/28 03:11:17;;;;;;;129.80;46.10;;;6.40;98.30;;;;;;5130555;27;20219;-69
2021/10/28 03:13:47;;;;;;;569.17;97.85;;;6.40;97.80;;;;;;5140163;27;20201;-68
2021/10/28 03:16:19;;;;;;;112.45;43.72;;;6.40;98.10;;;;;;5131261;27;20221;-69
2021/10/28 03:19:21;;;;;;;572.55;94.30;;;6.40;98.20;;;;;;5129850;27;20622;-69
2021/10/28 03:27:18;;;;;;;42.05;38.35;;;6.30;99.20;;;;;;5133633;27;20678;-69
2021/10/28 03:29:45;;;;;;;38.97;35.78;;;6.20;98.60;;;;;;5128435;27;20690;-69
2021/10/28 03:32:12;;;;;;;41.90;37.50;;;6.20;98.30;;;;;;5127883;27;20206;-69
2021/10/28 03:34:39;;;;;;;118.03;40.80;;;6.20;98.50;;;;;;5129247;27;20284;-69
2021/10/28 03:37:12;;;;;;;1972.53;273.00;;;6.20;99.40;;;;;;5128640;27;20667;-69
2021/10/28 03:40:03;;;;;;;1523.28;211.00;;;6.30;99.30;;;;;;5117783;27;20189;-69
2021/10/28 03:42:59;;;;;;;705.60;104.78;;;6.20;99.10;;;;;;5135117;27;20214;-69
2021/10/28 03:45:48;;;;;;;42.08;38.38;;;6.20;98.90;;;;;;5123098;27;20190;-71
2021/10/28 04:18:52;;;;;;;62.10;39.33;;;6.00;98.00;;;;;;5029304;27;20285;-69
2021/10/28 04:21:52;;;;;;;315.65;57.83;;;5.90;98.00;;;;;;5128949;27;20212;-69
2021/10/28 04:29:49;;;;;;;39.63;36.22;;;5.90;98.00;;;;;;5086347;27;20194;-69
2021/10/28 04:32:16;;;;;;;40.08;36.58;;;5.80;97.90;;;;;;5126190;27;20245;-69
2021/10/28 04:34:44;;;;;;;38.80;35.30;;;5.90;97.70;;;;;;5128457;27;20571;-69
2021/10/28 04:37:11;;;;;;;40.70;37.10;;;5.90;97.40;;;;;;5137849;27;20212;-72
2021/10/28 04:39:38;;;;;;;42.42;38.45;;;6.00;97.20;;;;;;5126174;27;20285;-71
2021/10/28 04:42:07;;;;;;;41.33;37.72;;;6.10;96.60;;;;;;5124702;27;20217;-71
2021/10/28 04:44:35;;;;;;;1999.90;393.92;;;6.00;96.80;;;;;;5122358;27;20230;-69
2021/10/28 04:47:01;;;;;;;44.40;40.40;;;6.00;97.70;;;;;;5136606;27;20197;-69
2021/10/28 04:49:28;;;;;;;1600.82;234.13;;;6.10;98.10;;;;;;5129901;27;20198;-70
2021/10/28 04:51:55;;;;;;;45.20;40.90;;;6.10;98.90;;;;;;5128255;27;20309;-69
2021/10/28 04:54:22;;;;;;;43.03;38.95;;;6.10;99.10;;;;;;5126210;27;20190;-69
2021/10/28 04:56:49;;;;;;;43.28;39.28;;;6.20;98.60;;;;;;5135438;27;20220;-70
2021/10/28 04:59:17;;;;;;;46.55;42.33;;;6.20;98.20;;;;;;5129717;27;20286;-69
2021/10/28 05:01:45;;;;;;;44.13;40.13;;;6.20;98.30;;;;;;5124462;27;20698;-70
2021/10/28 05:04:12;;;;;;;46.78;42.33;;;6.20;98.10;;;;;;5120739;27;20197;-71
2021/10/28 05:06:38;;;;;;;49.67;45.00;;;6.20;98.60;;;;;;5128175;27;20273;-71
2021/10/28 05:09:08;;;;;;;1014.28;157.98;;;6.40;98.10;;;;;;5122920;27;20735;-70
2021/10/28 05:11:35;;;;;;;71.70;45.83;;;6.50;98.40;;;;;;5125484;27;20710;-69
2021/10/28 05:14:02;;;;;;;49.33;44.20;;;6.60;98.50;;;;;;5125023;27;20683;-69
2021/10/28 05:16:30;;;;;;;49.85;44.42;;;6.60;98.90;;;;;;5123153;27;20223;-70
2021/10/28 05:18:57;;;;;;;49.00;44.10;;;6.60;98.70;;;;;;5131444;27;20194;-71
2021/10/28 05:21:26;;;;;;;52.33;47.25;;;6.70;98.50;;;;;;5136560;27;20205;-69
2021/10/28 05:23:53;;;;;;;46.95;42.25;;;6.80;98.20;;;;;;5129160;27;20250;-71
2021/10/28 05:26:23;;;;;;;769.60;131.75;;;6.80;98.10;;;;;;5127003;27;20197;-71
2021/10/28 05:28:50;;;;;;;52.88;47.20;;;6.90;98.40;;;;;;5129420;28;20266;-70
2021/10/28 05:31:21;;;;;;;53.08;45.67;;;6.90;99.20;;;;;;5126157;28;20221;-69
2021/10/28 05:33:49;;;;;;;486.60;86.40;;;7.00;98.60;;;;;;5121332;28;20194;-70
2021/10/28 05:36:16;;;;;;;48.80;43.83;;;7.10;98.60;;;;;;5126032;27;20933;-70
2021/10/28 05:38:43;;;;;;;49.90;44.78;;;7.10;98.30;;;;;;5129049;28;20225;-70
2021/10/28 05:41:10;;;;;;;47.22;42.63;;;7.20;97.90;;;;;;5127151;27;20454;-72
2021/10/28 05:43:37;;;;;;;46.55;41.90;;;7.20;97.80;;;;;;5127244;28;20190;-70
2021/10/28 05:46:04;;;;;;;45.38;41.00;;;7.20;97.40;;;;;;5124159;27;20193;-69
2021/10/28 05:48:32;;;;;;;46.65;42.10;;;7.20;97.60;;;;;;5130486;27;20198;-70
2021/10/28 05:51:01;;;;;;;91.32;44.05;;;7.20;97.60;;;;;;5120680;27;20281;-69
2021/10/28 05:53:28;;;;;;;55.83;43.55;;;7.20;97.80;;;;;;5127314;28;20711;-70
2021/10/28 05:56:00;;;;;;;46.72;42.22;;;7.30;97.40;;;;;;5126936;27;20247;-70
2021/10/28 05:58:27;;;;;;;43.58;39.47;;;7.30;97.20;;;;;;5121047;27;20228;-72
2021/10/28 06:00:54;;;;;;;44.75;40.85;;;7.20;97.00;;;;;;5132355;27;20301;-72
2021/10/28 06:03:20;;;;;;;45.97;41.88;;;7.10;98.00;;;;;;5146077;27;20620;-71
2021/10/28 06:05:48;;;;;;;66.93;42.10;;;7.10;98.30;;;;;;5130711;27;20194;-75
2021/10/28 06:08:16;;;;;;;44.53;40.55;;;7.00;98.50;;;;;;5132585;27;20194;-72
2021/10/28 06:10:43;;;;;;;334.77;63.83;;;7.00;98.60;;;;;;5132243;27;20202;-76
2021/10/28 06:13:10;;;;;;;56.95;42.33;;;7.10;98.30;;;;;;5139618;27;20217;-72
2021/10/28 06:15:37;;;;;;;43.00;38.97;;;7.00;97.90;;;;;;5127691;27;20194;-72
2021/10/28 06:18:34;;;;;;;44.97;40.75;;;7.10;97.50;;;;;;5130621;27;20267;-73
2021/10/28 06:21:08;;;;;;;43.25;39.20;;;7.10;97.20;;;;;;5126028;27;20251;-73
2021/10/28 06:23:38;;;;;;;43.75;39.40;;;7.00;98.50;;;;;;5127461;27;20367;-72
2021/10/28 06:26:05;;;;;;;44.42;40.03;;;7.20;99.90;;;;;;5132429;27;20202;-69
2021/10/28 06:28:33;;;;;;;42.00;38.13;;;7.20;98.70;;;;;;5136976;27;20198;-70
2021/10/28 06:31:00;;;;;;;40.92;37.35;;;7.30;98.20;;;;;;5127308;27;20229;-70
2021/10/28 06:33:30;;;;;;;40.17;36.53;;;7.30;97.70;;;;;;5131534;27;20208;-69
2021/10/28 06:35:58;;;;;;;40.00;36.58;;;7.30;97.80;;;;;;5130795;27;20209;-70
2021/10/28 06:38:25;;;;;;;40.53;37.05;;;7.40;97.70;;;;;;5132299;27;20218;-70
2021/10/28 06:40:53;;;;;;;42.05;38.35;;;7.40;97.50;;;;;;5130672;27;20204;-70
2021/10/28 06:43:23;;;;;;;39.08;35.70;;;7.50;97.20;;;;;;5121748;27;20225;-69
2021/10/28 06:45:50;;;;;;;40.20;36.72;;;7.50;96.70;;;;;;5124831;27;20206;-69
2021/10/28 06:48:17;;;;;;;37.85;34.72;;;7.60;96.30;;;;;;5140651;27;20186;-69
2021/10/28 06:50:50;;;;;;;38.83;35.80;;;7.60;96.10;;;;;;5131603;27;20267;-69
2021/10/28 06:53:23;;;;;;;36.95;33.90;;;7.80;96.20;;;;;;5135435;27;20216;-71
2021/10/28 06:55:56;;;;;;;36.00;33.00;;;7.90;95.30;;;;;;5125822;27;20675;-71
2021/10/28 07:03:53;;;;;;;41.03;37.83;;;8.00;94.50;;;;;;5134737;27;20197;-73
2021/10/28 07:06:21;;;;;;;37.10;33.92;;;8.00;94.00;;;;;;5129177;27;20186;-75
2021/10/28 07:08:51;;;;;;;35.38;32.58;;;8.00;94.00;;;;;;5122995;27;20218;-73
2021/10/28 07:11:23;;;;;;;34.28;31.67;;;8.00;93.70;;;;;;5130872;27;20559;-71
2021/10/28 07:13:53;;;;;;;36.72;33.83;;;8.20;93.40;;;;;;5130230;27;20244;-71
2021/10/28 07:16:38;;;;;;;34.55;31.85;;;8.20;92.80;;;;;;5133625;27;20189;-70
2021/10/28 07:19:15;;;;;;;38.42;35.42;;;8.20;92.60;;;;;;5133629;27;20200;-69
2021/10/28 07:21:53;;;;;;;37.70;34.75;;;8.20;92.50;;;;;;5129961;27;20209;-69
2021/10/28 07:24:51;;;;;;;37.70;34.70;;;8.20;92.40;;;;;;5130630;27;20200;-69
2021/10/28 07:27:34;;;;;;;37.47;34.47;;;8.20;92.40;;;;;;5129466;27;20218;-69
2021/10/28 08:14:57;;;;;;;37.58;34.35;;;8.50;90.40;;;;;;5051375;28;20790;-71
2021/10/28 08:20:28;;;;;;;35.53;32.83;;;8.70;88.40;;;;;;5132376;27;20343;-71
2021/10/28 08:23:03;;;;;;;36.22;33.22;;;8.70;89.60;;;;;;5130445;27;20591;-71
2021/10/28 08:30:58;;;;;;;36.35;33.35;;;8.70;92.70;;;;;;5130371;27;20201;-71
2021/10/28 08:33:26;;;;;;;34.33;31.63;;;8.80;92.30;;;;;;5130857;27;20204;-72
2021/10/28 08:36:06;;;;;;;34.30;31.50;;;8.90;90.30;;;;;;5126874;27;20955;-71
2021/10/28 08:38:34;;;;;;;35.75;32.80;;;9.00;89.10;;;;;;5123621;27;20209;-70
2021/10/28 08:41:03;;;;;;;36.67;33.78;;;9.10;87.90;;;;;;5138846;27;20281;-71
2021/10/28 08:43:35;;;;;;;38.55;35.38;;;9.20;87.60;;;;;;5129674;27;20202;-69
2021/10/28 08:46:02;;;;;;;36.10;33.10;;;9.20;88.40;;;;;;5126443;27;20535;-69
2021/10/28 08:48:32;;;;;;;35.83;32.97;;;9.30;90.60;;;;;;5130207;27;20534;-69
2021/10/28 08:51:12;;;;;;;36.50;33.08;;;9.40;88.60;;;;;;5128731;27;21264;-69
2021/10/28 08:56:36;;;;;;;36.03;33.43;;;9.50;87.00;;;;;;5128772;27;20446;-71
2021/10/28 08:59:28;;;;;;;36.77;33.80;;;9.70;86.60;;;;;;5125504;27;20455;-70
2021/10/28 09:24:36;;;;;;;38.53;35.10;;;10.80;86.10;;;;;;5130787;27;20495;-70
2021/10/28 09:27:08;;;;;;;40.20;36.87;;;10.90;86.00;;;;;;5128873;27;20446;-69
2021/10/28 09:29:44;;;;;;;39.43;36.07;;;11.00;85.80;;;;;;5131080;27;20455;-70
2021/10/28 09:32:20;;;;;;;40.90;37.70;;;11.20;85.40;;;;;;5133017;27;20477;-71
2021/10/28 09:35:23;;;;;;;39.67;36.30;;;11.30;85.10;;;;;;5124708;27;20832;-69
2021/10/28 09:43:42;;;;;;;39.57;36.33;;;11.60;84.50;;;;;;5127859;27;20445;-71
2021/10/28 09:46:41;;;;;;;40.60;37.10;;;11.70;83.80;;;;;;5117501;27;20452;-70
2021/10/28 09:52:00;;;;;;;42.30;38.67;;;11.90;83.20;;;;;;5133982;27;20497;-71
2021/10/28 09:54:34;;;;;;;42.03;38.83;;;12.00;83.00;;;;;;5132550;27;20511;-71
2021/10/28 09:59:55;;;;;;;44.37;40.83;;;12.20;82.90;;;;;;5132581;27;20604;-69
2021/10/28 10:02:32;;;;;;;40.03;36.83;;;12.30;82.40;;;;;;5143495;27;20473;-69
2021/10/28 10:05:00;;;;;;;40.40;37.20;;;12.40;82.10;;;;;;5122867;27;20458;-69
2021/10/28 10:07:28;;;;;;;40.53;37.20;;;12.50;82.00;;;;;;5133298;27;20458;-71
2021/10/28 10:09:56;;;;;;;39.73;36.40;;;12.50;81.90;;;;;;5132008;27;20516;-69
2021/10/28 10:12:25;;;;;;;39.30;36.10;;;12.60;81.50;;;;;;5142545;27;20633;-69
2021/10/28 10:14:53;;;;;;;42.03;38.47;;;12.80;81.00;;;;;;5124335;27;20447;-72
2021/10/28 10:17:21;;;;;;;40.43;37.23;;;12.90;80.60;;;;;;5144000;27;20510;-71
2021/10/28 10:19:51;;;;;;;39.80;36.60;;;13.00;80.40;;;;;;5132756;27;20465;-71
2021/10/28 10:22:29;;;;;;;41.40;38.07;;;13.00;80.40;;;;;;5137888;27;21040;-70
2021/10/28 11:27:33;;;;;;;40.50;37.40;;;14.90;73.60;;;;;;5138224;27;20538;-68
2021/10/28 12:21:27;;;;;;;38.60;35.70;;;15.30;72.70;;;;;;5125364;27;20455;-67
2021/10/28 12:44:08;;;;;;;37.03;34.07;;;15.80;70.40;;;;;;5125362;27;20919;-68
2021/10/28 12:52:55;;;;;;;37.70;34.90;;;15.90;69.90;;;;;;5089737;27;20825;-68
2021/10/28 12:55:37;;;;;;;36.03;33.43;;;15.90;69.90;;;;;;5134352;27;20454;-68
2021/10/28 13:06:48;;;;;;;38.10;35.40;;;15.60;71.00;;;;;;5131980;27;20484;-71
2021/10/28 13:53:51;;;;;;;35.63;33.13;;;16.20;68.60;;;;;;5122339;27;20817;-72
2021/10/28 15:27:51;;;;;;;33.90;31.43;;;15.60;72.00;;;;;;5141456;27;20494;-68
2021/10/28 15:30:23;;;;;;;35.90;32.90;;;15.60;72.00;;;;;;5126301;27;20929;-67
2021/10/28 15:35:39;;;;;;;33.40;31.30;;;15.60;72.50;;;;;;5123295;27;20497;-69
2021/10/28 15:41:19;;;;;;;35.80;33.20;;;15.40;72.90;;;;;;5104231;27;20536;-67
2021/10/28 15:57:56;;;;;;;33.10;30.80;;;14.90;75.90;;;;;;5130454;27;20454;-70
2021/10/28 16:00:49;;;;;;;31.87;29.67;;;14.60;77.60;;;;;;5127603;27;20478;-70
2021/10/28 16:22:30;;;;;;;29.87;27.87;;;13.50;81.90;;;;;;5116251;27;20229;-71
2021/10/28 16:24:57;;;;;;;30.60;28.30;;;13.30;82.30;;;;;;5136740;27;20450;-70
2021/10/28 16:27:24;;;;;;;30.80;28.60;;;13.20;82.40;;;;;;5140113;27;20537;-72
2021/10/28 16:29:51;;;;;;;29.67;27.63;;;13.10;82.70;;;;;;5121954;27;20959;-72
2021/10/28 16:32:19;;;;;;;29.47;27.47;;;13.00;83.20;;;;;;5126023;27;21102;-72
2021/10/28 16:34:46;;;;;;;29.77;27.70;;;12.80;83.40;;;;;;5128160;27;20664;-73
2021/10/28 16:37:14;;;;;;;29.57;27.47;;;12.80;84.00;;;;;;5126239;27;20972;-73
2021/10/28 16:39:41;;;;;;;29.20;27.20;;;12.70;84.40;;;;;;5129915;27;20476;-72
2021/10/28 16:42:08;;;;;;;28.53;26.53;;;12.60;84.60;;;;;;5130937;27;20475;-75
2021/10/28 16:44:37;;;;;;;28.10;26.20;;;12.50;85.00;;;;;;5122942;27;20470;-71
2021/10/28 16:47:04;;;;;;;29.87;27.80;;;12.40;85.10;;;;;;5131643;27;20467;-70
2021/10/28 16:49:33;;;;;;;31.03;28.77;;;12.30;85.50;;;;;;5126538;27;20877;-73
2021/10/28 16:52:00;;;;;;;29.80;27.50;;;12.30;86.30;;;;;;5137161;27;20478;-70
2021/10/28 16:54:26;;;;;;;29.60;27.53;;;12.20;86.20;;;;;;5127796;27;20451;-71
2021/10/28 16:56:53;;;;;;;30.30;28.00;;;12.10;86.20;;;;;;5135537;27;20454;-72
2021/10/28 16:59:20;;;;;;;29.13;27.00;;;12.10;86.40;;;;;;5131422;27;20566;-73
2021/10/28 17:01:47;;;;;;;31.03;28.80;;;12.00;86.90;;;;;;5129102;27;20990;-72
2021/10/28 17:04:14;;;;;;;32.60;30.20;;;11.80;87.20;;;;;;5128366;27;20455;-68
2021/10/28 17:06:43;;;;;;;28.90;26.90;;;11.80;87.50;;;;;;5134001;27;20457;-68
2021/10/28 17:09:10;;;;;;;27.37;25.37;;;11.70;87.50;;;;;;5134325;27;20534;-68
2021/10/28 17:11:38;;;;;;;29.47;27.30;;;11.60;87.80;;;;;;5126901;27;20479;-68
2021/10/28 17:14:06;;;;;;;30.17;28.00;;;11.50;88.00;;;;;;5126645;27;20482;-71
2021/10/28 17:16:33;;;;;;;27.77;25.87;;;11.50;88.40;;;;;;5117953;27;20452;-71
2021/10/28 17:19:02;;;;;;;26.17;24.37;;;11.40;89.30;;;;;;5121526;27;20471;-70
2021/10/28 17:21:29;;;;;;;26.30;24.60;;;11.40;89.20;;;;;;5119304;27;20484;-72
2021/10/28 17:24:02;;;;;;;26.97;25.03;;;11.30;90.30;;;;;;5125506;27;21008;-71
2021/10/28 17:26:31;;;;;;;28.67;26.57;;;11.20;90.30;;;;;;5124096;27;20486;-72
2021/10/28 17:29:01;;;;;;;28.47;26.33;;;11.20;89.70;;;;;;5120895;28;20471;-71
2021/10/28 17:31:29;;;;;;;30.40;27.83;;;11.20;89.70;;;;;;5126318;27;20471;-71
2021/10/28 17:33:57;;;;;;;27.73;25.83;;;11.10;89.90;;;;;;5128057;27;20458;-72
2021/10/28 17:36:24;;;;;;;28.03;26.03;;;11.10;89.60;;;;;;5127425;27;20438;-73
2021/10/28 17:38:51;;;;;;;29.23;27.13;;;11.10;89.90;;;;;;5132604;27;20467;-72
2021/10/28 17:41:20;;;;;;;31.00;28.60;;;11.00;90.20;;;;;;5122626;27;21012;-73
2021/10/28 17:43:50;;;;;;;28.93;26.73;;;11.00;90.10;;;;;;5120599;27;20455;-75
2021/10/28 17:46:18;;;;;;;29.27;27.20;;;10.90;90.40;;;;;;5124144;27;20462;-70
2021/10/28 17:48:48;;;;;;;28.47;25.93;;;10.90;90.80;;;;;;5125256;27;20467;-68
2021/10/28 17:51:14;;;;;;;27.93;25.63;;;10.80;90.70;;;;;;5126109;27;21230;-68
2021/10/28 17:53:44;;;;;;;30.20;27.80;;;10.80;90.80;;;;;;5130596;27;20455;-68
2021/10/28 17:56:12;;;;;;;29.03;26.87;;;10.70;91.30;;;;;;5136223;27;20446;-68
2021/10/28 17:58:40;;;;;;;30.03;27.27;;;10.70;91.10;;;;;;5130373;27;20470;-68
2021/10/28 18:01:07;;;;;;;28.93;26.93;;;10.60;91.10;;;;;;5131844;27;21046;-68
2021/10/28 18:03:35;;;;;;;31.17;28.67;;;10.70;90.90;;;;;;5129010;27;20461;-68
2021/10/28 18:06:03;;;;;;;29.70;27.30;;;10.50;91.10;;;;;;5131758;27;20455;-68
2021/10/28 18:08:31;;;;;;;29.00;26.93;;;10.50;92.60;;;;;;5136765;27;20443;-68
2021/10/28 18:10:57;;;;;;;29.07;26.57;;;10.50;93.70;;;;;;5128752;27;20513;-68
2021/10/28 18:13:24;;;;;;;30.63;28.30;;;10.40;93.10;;;;;;5130397;27;20456;-68
2021/10/28 18:15:55;;;;;;;29.20;26.70;;;10.40;92.90;;;;;;5126150;27;20478;-68
2021/10/28 18:18:22;;;;;;;28.07;25.90;;;10.40;92.70;;;;;;5126810;27;20451;-68
2021/10/28 18:20:49;;;;;;;30.57;28.20;;;10.30;92.30;;;;;;5127414;27;20465;-68
2021/10/28 18:23:16;;;;;;;29.40;27.07;;;10.30;92.70;;;;;;5129776;27;20486;-67
2021/10/28 18:25:43;;;;;;;31.10;28.57;;;10.30;93.20;;;;;;5126906;27;20877;-67
2021/10/28 18:28:10;;;;;;;30.20;27.70;;;10.20;92.90;;;;;;5129596;27;20530;-68
2021/10/28 18:30:37;;;;;;;31.97;29.37;;;10.20;92.70;;;;;;5129393;27;20463;-68
2021/10/28 18:33:05;;;;;;;33.00;30.30;;;10.20;92.80;;;;;;5130698;27;20502;-68
2021/10/28 18:35:32;;;;;;;35.80;32.40;;;10.20;92.80;;;;;;5124251;27;20451;-68
2021/10/28 18:37:59;;;;;;;32.73;29.93;;;10.20;94.00;;;;;;5128003;27;20538;-68
2021/10/28 18:40:27;;;;;;;33.37;30.47;;;10.10;93.70;;;;;;5127888;27;20485;-68
2021/10/28 18:42:54;;;;;;;32.30;29.50;;;10.10;93.50;;;;;;5130298;27;20475;-68
2021/10/28 18:45:21;;;;;;;33.77;30.57;;;10.10;93.60;;;;;;5127438;27;20462;-68
2021/10/28 18:47:49;;;;;;;34.00;31.07;;;10.00;93.50;;;;;;5128600;27;20575;-68
2021/10/28 18:50:17;;;;;;;36.43;33.10;;;10.00;93.30;;;;;;5128295;27;20535;-68
2021/10/28 18:52:45;;;;;;;34.90;32.10;;;9.90;93.10;;;;;;5129187;27;20467;-68
2021/10/28 18:55:12;;;;;;;36.40;33.30;;;9.80;93.10;;;;;;5126437;27;21397;-68
2021/10/28 18:57:39;;;;;;;33.90;31.07;;;9.80;92.90;;;;;;5123104;27;20467;-70
2021/10/28 19:00:08;;;;;;;34.30;31.47;;;9.70;93.00;;;;;;5126809;27;21021;-71
2021/10/28 19:02:36;;;;;;;32.23;29.63;;;9.70;93.10;;;;;;5126182;27;20572;-72
2021/10/28 19:05:04;;;;;;;33.27;30.40;;;9.60;93.20;;;;;;5125553;27;20553;-70
2021/10/28 19:07:33;;;;;;;32.27;29.87;;;9.60;93.10;;;;;;5126563;27;20448;-71
2021/10/28 19:10:01;;;;;;;32.37;29.67;;;9.50;93.20;;;;;;5126431;27;20456;-75
2021/10/28 19:12:28;;;;;;;34.87;32.00;;;9.50;93.60;;;;;;5125463;27;20498;-74
2021/10/28 19:14:55;;;;;;;35.70;32.55;;;9.40;93.50;;;;;;5129424;27;20459;-71
2021/10/28 19:17:22;;;;;;;33.65;30.55;;;9.40;93.80;;;;;;5124252;27;20194;-72
2021/10/28 19:19:49;;;;;;;32.33;29.85;;;9.30;94.00;;;;;;5127182;27;20305;-70
2021/10/28 19:22:16;;;;;;;30.07;27.63;;;9.30;93.90;;;;;;5123243;27;20223;-70
2021/10/28 19:24:45;;;;;;;32.37;29.77;;;9.30;93.80;;;;;;5125738;27;20527;-70
2021/10/28 19:27:12;;;;;;;31.23;28.70;;;9.30;93.80;;;;;;5126597;27;20821;-72
2021/10/28 19:29:45;;;;;;;33.80;31.10;;;9.20;93.70;;;;;;5127141;27;20290;-73
2021/10/28 19:32:16;;;;;;;30.60;28.20;;;9.20;94.00;;;;;;5119158;27;20639;-70
2021/10/28 19:34:43;;;;;;;31.53;28.73;;;9.10;94.10;;;;;;5126190;27;20957;-69
2021/10/28 19:37:14;;;;;;;32.35;29.85;;;9.10;94.10;;;;;;5126314;27;20536;-71
2021/10/28 19:46:08;;;;;;;32.65;30.10;;;9.10;93.70;;;;;;5041017;28;20637;-70
2021/10/28 19:48:18;;;;;;;32.40;29.45;;;9.00;93.60;;;;;;5043747;28;20233;-67
2021/10/28 19:50:46;;;;;;;33.80;31.00;;;9.00;93.70;;;;;;5091622;27;20453;-67
2021/10/28 19:53:14;;;;;;;34.13;31.23;;;9.10;93.70;;;;;;5127936;27;20462;-67
2021/10/28 19:55:42;;;;;;;31.73;29.25;;;9.20;92.90;;;;;;5125118;27;20202;-67
2021/10/28 19:58:16;;;;;;;35.22;32.22;;;9.00;93.30;;;;;;5127713;27;20197;-70
2021/10/28 20:00:47;;;;;;;33.53;30.83;;;8.90;93.70;;;;;;5127299;27;20213;-67
2021/10/28 20:06:10;;;;;;;32.80;30.20;;;8.70;94.10;;;;;;5125837;27;20681;-67
2021/10/28 20:14:22;;;;;;;35.60;32.55;;;8.60;95.30;;;;;;5126264;27;20293;-67
2021/10/28 20:22:18;;;;;;;34.67;31.58;;;8.60;95.40;;;;;;5127420;27;20571;-67
2021/10/28 20:24:46;;;;;;;33.20;30.60;;;8.60;95.50;;;;;;5124241;27;20198;-67
2021/10/28 20:27:13;;;;;;;36.05;33.05;;;8.70;96.60;;;;;;5126363;27;20209;-67
2021/10/28 20:29:41;;;;;;;36.10;32.70;;;8.70;96.10;;;;;;5125099;27;20198;-67
2021/10/28 20:32:08;;;;;;;34.55;31.42;;;8.70;95.70;;;;;;5119774;27;20340;-67
2021/10/28 20:34:37;;;;;;;33.83;30.90;;;8.70;95.40;;;;;;5125263;27;20198;-67
2021/10/28 20:37:06;;;;;;;35.20;32.25;;;8.70;95.30;;;;;;5117098;27;20191;-67
2021/10/28 20:39:33;;;;;;;36.17;33.08;;;8.70;95.60;;;;;;5125837;27;20230;-70
2021/10/28 20:42:00;;;;;;;36.78;33.60;;;8.70;95.90;;;;;;5129840;27;20253;-70
2021/10/28 20:44:28;;;;;;;37.55;33.97;;;8.70;96.00;;;;;;5126921;27;20198;-70
2021/10/28 20:46:56;;;;;;;36.47;33.58;;;8.70;95.80;;;;;;5122850;27;20575;-72
2021/10/28 20:49:23;;;;;;;36.30;33.38;;;8.70;95.90;;;;;;5124765;27;20293;-70
2021/10/28 20:51:50;;;;;;;37.92;34.78;;;8.70;95.80;;;;;;5122205;27;20232;-71
2021/10/28 20:54:18;;;;;;;36.92;33.50;;;8.80;95.80;;;;;;5128448;27;20281;-71
2021/10/28 20:56:45;;;;;;;35.28;31.77;;;8.90;96.10;;;;;;5130329;27;20541;-69
2021/10/28 20:59:12;;;;;;;36.28;33.28;;;8.90;96.00;;;;;;5124481;27;20289;-73